Time;durP1;ratioP1;P1;durP2;ratioP2;P2;SDS_P1;SDS_P2;PMS_P1;PMS_P2;Temp;Humidity;BMP_temperature;BMP_pressure;BME280_temperature;BME280_humidity;BME280_pressure;Samples;Min_cycle;Max_cycle;Signal;HPM_P1;HPM_P2
2023/12/10 00:08:20;;;;;;;45.93;15.83;;;;;;;6.48;100.00;100340.06;31040603;28;20463;-81
2023/12/10 00:23:22;;;;;;;31.27;12.50;;;;;;;6.52;100.00;100331.97;31068615;28;20050;-74
2023/12/10 00:38:24;;;;;;;22.77;9.20;;;;;;;6.33;100.00;100330.44;31096866;28;20145;-75
2023/12/10 00:53:26;;;;;;;28.47;12.30;;;;;;;6.34;100.00;100315.78;31023414;28;20039;-76
2023/12/10 01:08:28;;;;;;;34.17;10.83;;;;;;;6.27;100.00;100305.78;31037692;28;20149;-75
2023/12/10 01:23:30;;;;;;;14.97;6.60;;;;;;;6.07;100.00;100296.50;31055315;28;20508;-81
2023/12/10 01:38:33;;;;;;;19.10;7.20;;;;;;;6.16;100.00;100288.81;31094582;28;20076;-80
2023/12/10 01:53:36;;;;;;;21.60;7.67;;;;;;;6.36;100.00;100302.72;31080677;28;20116;-74
2023/12/10 02:08:44;;;;;;;22.43;8.87;;;;;;;6.57;100.00;100307.34;31099175;28;20054;-81
2023/12/10 02:23:55;;;;;;;16.97;8.77;;;;;;;6.41;100.00;100321.19;31104688;28;20054;-80
2023/12/10 02:38:57;;;;;;;22.03;8.63;;;;;;;6.34;100.00;100310.41;31096575;28;20096;-81
2023/12/10 02:53:59;;;;;;;19.07;7.80;;;;;;;6.41;100.00;100321.19;31083750;28;20053;-81
2023/12/10 03:09:01;;;;;;;17.10;8.07;;;;;;;6.33;100.00;100331.22;31129300;28;20042;-80
2023/12/10 03:24:03;;;;;;;20.33;10.27;;;;;;;6.14;100.00;100323.47;31041799;28;20093;-74
2023/12/10 03:39:05;;;;;;;27.53;11.50;;;;;;;6.14;100.00;100315.41;31008356;28;20077;-75
2023/12/10 03:54:07;;;;;;;22.87;8.43;;;;;;;5.96;100.00;100311.88;30992278;28;20039;-75
2023/12/10 04:09:09;;;;;;;23.60;7.23;;;;;;;6.01;100.00;100324.97;31112226;28;20088;-75
2023/12/10 04:24:12;;;;;;;27.50;10.87;;;;;;;6.14;100.00;100339.66;31046615;28;20050;-76
2023/12/10 04:39:15;;;;;;;23.03;8.13;;;;;;;6.25;100.00;100362.00;31029606;28;20575;-75
2023/12/10 04:54:17;;;;;;;25.93;10.27;;;;;;;6.01;100.00;100374.25;31114814;28;20050;-76
2023/12/10 05:09:20;;;;;;;25.00;9.77;;;;;;;6.02;100.00;100383.13;31095704;28;20058;-75
2023/12/10 05:24:22;;;;;;;22.57;9.27;;;;;;;5.99;100.00;100381.19;31096338;28;20482;-75
2023/12/10 05:39:24;;;;;;;14.87;7.27;;;;;;;5.99;100.00;100408.13;31021794;28;20342;-76
2023/12/10 05:54:26;;;;;;;14.67;6.40;;;;;;;5.80;100.00;100417.25;31023175;28;20093;-74
2023/12/10 06:09:28;;;;;;;15.47;7.63;;;;;;;5.97;100.00;100435.44;31119999;28;20050;-76
2023/12/10 06:24:30;;;;;;;16.57;8.20;;;;;;;6.14;100.00;100448.22;31104111;28;20488;-75
2023/12/10 06:39:33;;;;;;;19.70;8.87;;;;;;;6.15;100.00;100455.16;31038898;28;20050;-76
2023/12/10 06:54:35;;;;;;;18.17;6.63;;;;;;;6.05;100.00;100457.81;31018705;28;20058;-79
2023/12/10 07:09:37;;;;;;;14.97;7.20;;;;;;;6.01;100.00;100500.16;31086225;28;20066;-80
2023/12/10 07:24:43;;;;;;;12.00;5.57;;;;;;;6.12;100.00;100514.47;31056541;28;20101;-78
2023/12/10 07:39:45;;;;;;;15.27;5.83;;;;;;;6.08;100.00;100540.63;31010900;28;20046;-77
2023/12/10 07:54:48;;;;;;;12.77;6.43;;;;;;;6.29;100.00;100548.81;31061735;28;20073;-76
2023/12/10 08:09:52;;;;;;;11.37;6.17;;;;;;;6.19;100.00;100544.13;31019559;28;20050;-76
2023/12/10 08:24:54;;;;;;;12.03;5.93;;;;;;;6.17;100.00;100562.59;31088235;28;20160;-75
2023/12/10 08:39:56;;;;;;;13.00;5.90;;;;;;;6.10;100.00;100565.28;31049406;28;20050;-76
2023/12/10 08:54:58;;;;;;;12.97;6.47;;;;;;;6.00;100.00;100555.19;31038484;28;20048;-76
2023/12/10 09:10:01;;;;;;;12.70;6.63;;;;;;;5.81;100.00;100554.28;31052454;28;20047;-79
2023/12/10 09:25:13;;;;;;;14.53;6.53;;;;;;;6.02;100.00;100542.13;31086325;28;20469;-75
2023/12/10 09:40:15;;;;;;;14.90;7.20;;;;;;;5.78;100.00;100544.25;31042029;28;20080;-75
2023/12/10 09:55:21;;;;;;;;;;;;;;;6.01;100.00;100543.25;31059460;28;20112;-75
2023/12/10 10:10:25;;;;;;;14.53;7.33;;;;;;;6.00;100.00;100539.81;31068549;28;19926;-79
2023/12/10 10:25:27;;;;;;;13.17;7.53;;;;;;;6.07;100.00;100545.25;31041094;28;20089;-81
2023/12/10 10:40:30;;;;;;;19.37;8.07;;;;;;;5.80;100.00;100533.88;31088756;28;20872;-78
2023/12/10 10:55:36;;;;;;;14.83;8.20;;;;;;;6.06;100.00;100540.22;31094402;28;20042;-80
2023/12/10 11:10:44;;;;;;;;;;;;;;;6.05;100.00;100546.75;31114541;28;20500;-80
2023/12/10 11:25:47;;;;;;;23.83;10.23;;;;;;;5.17;100.00;100549.53;31092758;28;20139;-82
2023/12/10 11:40:49;;;;;;;18.13;8.17;;;;;;;5.36;100.00;100560.09;31031888;28;20096;-75
2023/12/10 11:55:52;;;;;;;25.57;10.27;;;;;;;5.58;100.00;100561.81;31089311;28;20107;-79
2023/12/10 12:10:57;;;;;;;19.20;9.40;;;;;;;5.56;100.00;100566.78;31079016;28;20743;-76
2023/12/10 12:25:59;;;;;;;16.73;9.70;;;;;;;5.02;100.00;100560.13;31089880;28;20085;-81
2023/12/10 12:41:01;;;;;;;14.47;6.90;;;;;;;5.50;100.00;100570.97;31088009;28;20046;-76
2023/12/10 12:56:03;;;;;;;13.23;6.47;;;;;;;5.51;100.00;100580.59;31094656;28;20518;-78
2023/12/10 13:11:05;;;;;;;18.87;9.13;;;;;;;5.58;100.00;100599.50;31062906;28;20050;-74
2023/12/10 13:26:07;;;;;;;20.10;9.03;;;;;;;5.75;100.00;100615.03;31069878;28;20145;-76
2023/12/10 13:41:11;;;;;;;16.23;8.93;;;;;;;5.92;100.00;100623.66;31022824;28;20097;-82
2023/12/10 13:56:13;;;;;;;19.10;9.30;;;;;;;5.99;100.00;100658.75;31006663;28;20061;-81
2023/12/10 14:11:15;;;;;;;13.70;7.50;;;;;;;6.04;100.00;100679.97;31026390;28;20057;-75
2023/12/10 14:26:20;;;;;;;17.43;8.93;;;;;;;5.96;100.00;100699.91;31116934;28;20565;-76
2023/12/10 14:41:22;;;;;;;20.17;8.50;;;;;;;5.96;100.00;100706.09;31030446;28;20054;-78
2023/12/10 14:56:24;;;;;;;20.73;11.37;;;;;;;5.75;100.00;100725.50;31041267;28;20099;-79
2023/12/10 15:11:26;;;;;;;14.10;8.37;;;;;;;5.68;100.00;100727.34;31041025;28;20583;-79
2023/12/10 15:26:28;;;;;;;21.63;8.37;;;;;;;5.71;100.00;100740.84;31081934;28;20474;-80
2023/12/10 15:41:30;;;;;;;18.10;7.80;;;;;;;5.61;100.00;100748.81;31030942;28;20050;-74
2023/12/10 15:56:32;;;;;;;15.50;7.70;;;;;;;5.45;100.00;100757.09;31035673;28;20076;-74
2023/12/10 16:11:35;;;;;;;16.33;9.03;;;;;;;5.55;100.00;100737.59;31030015;28;20563;-75
2023/12/10 16:26:37;;;;;;;13.13;7.93;;;;;;;5.37;100.00;100740.09;31049069;28;20062;-77
2023/12/10 16:41:40;;;;;;;19.17;9.63;;;;;;;5.44;100.00;100728.63;31079070;28;20050;-78
2023/12/10 16:56:42;;;;;;;13.43;6.77;;;;;;;5.22;100.00;100737.59;31069868;28;20066;-80
2023/12/10 17:11:44;;;;;;;13.33;6.60;;;;;;;5.27;100.00;100751.50;31085576;28;20054;-79
2023/12/10 17:26:46;;;;;;;14.70;7.77;;;;;;;5.19;100.00;100757.19;31075904;28;20054;-75
2023/12/10 17:41:50;;;;;;;13.40;7.37;;;;;;;5.35;100.00;100779.31;31057376;28;20042;-74
2023/12/10 17:56:52;;;;;;;36.83;16.40;;;;;;;5.22;100.00;100794.13;31061361;28;20082;-76
2023/12/10 18:11:54;;;;;;;21.93;8.87;;;;;;;5.13;100.00;100821.31;31061985;28;20522;-80
2023/12/10 18:26:57;;;;;;;26.83;8.77;;;;;;;5.14;100.00;100822.88;31050681;28;20101;-80
2023/12/10 18:41:59;;;;;;;34.57;8.10;;;;;;;5.19;100.00;100824.47;31039741;28;20069;-75
2023/12/10 18:57:01;;;;;;;22.60;8.13;;;;;;;5.19;100.00;100829.88;31038933;28;20053;-76
2023/12/10 19:12:03;;;;;;;28.23;10.37;;;;;;;5.27;100.00;100828.81;31043374;28;20146;-75
2023/12/10 19:27:05;;;;;;;21.67;9.60;;;;;;;5.26;100.00;100808.41;31049060;28;20517;-78
2023/12/10 19:42:08;;;;;;;29.33;10.80;;;;;;;5.01;100.00;100814.22;31060953;28;20068;-79
2023/12/10 19:57:10;;;;;;;29.50;10.10;;;;;;;5.19;100.00;100813.72;31059729;28;20082;-79
2023/12/10 20:12:12;;;;;;;32.87;8.83;;;;;;;5.19;100.00;100824.47;31045982;28;20490;-78
2023/12/10 20:27:14;;;;;;;18.23;7.90;;;;;;;5.09;100.00;100809.72;31046096;28;20068;-78
2023/12/10 20:42:16;;;;;;;14.97;8.07;;;;;;;5.20;100.00;100817.97;31043635;28;20130;-75
2023/12/10 20:57:18;;;;;;;20.80;10.13;;;;;;;5.14;100.00;100809.41;31047664;28;20065;-77
2023/12/10 21:12:20;;;;;;;24.00;9.37;;;;;;;5.24;100.00;100838.38;31036428;28;20081;-77
2023/12/10 21:27:23;;;;;;;16.87;8.17;;;;;;;5.22;100.00;100818.34;31033756;28;20050;-76
2023/12/10 21:42:25;;;;;;;21.87;9.27;;;;;;;5.14;100.00;100815.56;31128810;28;20492;-77
2023/12/10 21:57:28;;;;;;;23.77;9.57;;;;;;;5.29;100.00;100829.22;31092251;28;20061;-76
2023/12/10 22:12:31;;;;;;;18.93;9.17;;;;;;;5.49;100.00;100827.94;31076045;28;20100;-76
2023/12/10 22:27:33;;;;;;;16.63;8.20;;;;;;;5.07;100.00;100818.16;31028844;28;20054;-78
2023/12/10 22:42:35;;;;;;;14.00;6.23;;;;;;;5.22;100.00;100812.97;31149076;28;20136;-75
2023/12/10 22:57:37;;;;;;;28.03;9.20;;;;;;;5.19;100.00;100794.88;31160891;28;20054;-76
2023/12/10 23:12:39;;;;;;;24.37;8.03;;;;;;;5.18;100.00;100798.69;31066158;28;20296;-75
2023/12/10 23:27:44;;;;;;;11.77;6.73;;;;;;;5.20;100.00;100788.34;31009667;28;20520;-75
2023/12/10 23:42:46;;;;;;;21.47;9.37;;;;;;;5.01;100.00;100792.69;31015042;28;20092;-77
2023/12/10 23:57:48;;;;;;;19.87;7.23;;;;;;;5.10;100.00;100795.91;31061832;28;20064;-76
